Florissant, Colorado
Current Conditions -  °F | °C
As of 1:58 AM on Tuesday 21 Oct 2014 (Local Time) from KAFF Reporting Station
Clear Clear  
Wind Chill: 34°   Ceiling: Unl
Heat Index: 39°   Visibility: 10mi
Dew Point: 35°   Wind: 8mph
Humidity: 86%   Direction: 360°N
Pressure: 30.16"   Gusts: NA
Location:  38.95°N, 105.29°W
Report Text: KAFF 210758Z AUTO 36007KT 10SM CLR 04/02 A3016 RMK AO2 SLP163 T00400018
Loading
Personal Weather Stations






























Interactive Weather Map
Tropical Storm Tracking
New forecast layout! Learn more

10-Day Weather Forecast

Advertisements
Track Severe Weather on mobile